sensor_id;sensor_type;location;lat;lon;timestamp;pressure;altitude;pressure_sealevel;temperature;humidity
5651;BME280;40241;52.684;9.758;2023-02-12T00:01:36;103357.53;;;11.58;69.33
5651;BME280;40241;52.684;9.758;2023-02-12T00:04:02;103370.56;;;11.57;69.22
5651;BME280;40241;52.684;9.758;2023-02-12T00:06:28;103356.00;;;11.57;69.47
5651;BME280;40241;52.684;9.758;2023-02-12T00:08:54;103365.06;;;11.57;69.41
5651;BME280;40241;52.684;9.758;2023-02-12T00:11:28;103367.88;;;11.54;69.23
5651;BME280;40241;52.684;9.758;2023-02-12T00:13:54;103360.38;;;11.54;69.24
5651;BME280;40241;52.684;9.758;2023-02-12T00:16:22;103369.78;;;11.57;69.38
5651;BME280;40241;52.684;9.758;2023-02-12T00:18:51;103369.34;;;11.58;69.22
5651;BME280;40241;52.684;9.758;2023-02-12T00:21:17;103367.81;;;11.57;69.20
5651;BME280;40241;52.684;9.758;2023-02-12T00:23:43;103382.34;;;11.58;69.22
5651;BME280;40241;52.684;9.758;2023-02-12T00:26:11;103374.84;;;11.58;69.31
5651;BME280;40241;52.684;9.758;2023-02-12T00:28:37;103370.13;;;11.59;69.21
5651;BME280;40241;52.684;9.758;2023-02-12T00:31:10;103367.81;;;11.57;68.96
5651;BME280;40241;52.684;9.758;2023-02-12T00:33:36;103364.34;;;11.53;69.10
5651;BME280;40241;52.684;9.758;2023-02-12T00:36:02;103371.41;;;11.54;69.32
5651;BME280;40241;52.684;9.758;2023-02-12T00:38:28;103370.22;;;11.55;69.27
5651;BME280;40241;52.684;9.758;2023-02-12T00:40:53;103372.63;;;11.53;69.40
5651;BME280;40241;52.684;9.758;2023-02-12T00:43:18;103371.53;;;11.51;69.42
5651;BME280;40241;52.684;9.758;2023-02-12T00:45:45;103373.84;;;11.52;69.25
5651;BME280;40241;52.684;9.758;2023-02-12T00:48:11;103375.75;;;11.55;69.18
5651;BME280;40241;52.684;9.758;2023-02-12T00:50:36;103380.03;;;11.56;69.24
5651;BME280;40241;52.684;9.758;2023-02-12T00:53:02;103368.31;;;11.52;69.23
5651;BME280;40241;52.684;9.758;2023-02-12T00:55:27;103381.78;;;11.50;69.46
5651;BME280;40241;52.684;9.758;2023-02-12T00:57:52;103381.78;;;11.50;69.54
5651;BME280;40241;52.684;9.758;2023-02-12T01:00:18;103375.03;;;11.51;69.53
5651;BME280;40241;52.684;9.758;2023-02-12T01:02:43;103372.72;;;11.50;69.35
5651;BME280;40241;52.684;9.758;2023-02-12T01:05:09;103379.00;;;11.50;69.33
5651;BME280;40241;52.684;9.758;2023-02-12T01:07:34;103373.16;;;11.48;69.26
5651;BME280;40241;52.684;9.758;2023-02-12T01:10:00;103375.91;;;11.48;69.31
5651;BME280;40241;52.684;9.758;2023-02-12T01:12:25;103384.53;;;11.50;69.45
5651;BME280;40241;52.684;9.758;2023-02-12T01:14:50;103379.44;;;11.49;69.41
5651;BME280;40241;52.684;9.758;2023-02-12T01:17:16;103390.47;;;11.49;69.50
5651;BME280;40241;52.684;9.758;2023-02-12T01:19:41;103392.47;;;11.48;69.54
5651;BME280;40241;52.684;9.758;2023-02-12T01:22:07;103377.09;;;11.47;69.64
5651;BME280;40241;52.684;9.758;2023-02-12T01:24:32;103382.22;;;11.49;69.66
5651;BME280;40241;52.684;9.758;2023-02-12T01:26:57;103382.22;;;11.49;69.58
5651;BME280;40241;52.684;9.758;2023-02-12T01:29:23;103375.91;;;11.48;69.41
5651;BME280;40241;52.684;9.758;2023-02-12T01:31:48;103373.94;;;11.49;69.66
5651;BME280;40241;52.684;9.758;2023-02-12T01:34:13;103374.78;;;11.46;69.40
5651;BME280;40241;52.684;9.758;2023-02-12T01:36:39;103383.06;;;11.46;69.71
5651;BME280;40241;52.684;9.758;2023-02-12T01:39:05;103393.31;;;11.45;69.44
5651;BME280;40241;52.684;9.758;2023-02-12T01:41:35;103387.78;;;11.45;69.62
5651;BME280;40241;52.684;9.758;2023-02-12T01:44:24;103375.22;;;11.44;69.68
5651;BME280;40241;52.684;9.758;2023-02-12T01:46:59;103379.53;;;11.45;69.67
5651;BME280;40241;52.684;9.758;2023-02-12T01:49:31;103383.41;;;11.48;69.67
5651;BME280;40241;52.684;9.758;2023-02-12T01:52:19;103383.41;;;11.48;69.37
5651;BME280;40241;52.684;9.758;2023-02-12T01:54:47;103386.31;;;11.41;69.43
5651;BME280;40241;52.684;9.758;2023-02-12T01:57:13;103387.09;;;11.41;69.71
5651;BME280;40241;52.684;9.758;2023-02-12T01:59:42;103381.69;;;11.38;69.62
5651;BME280;40241;52.684;9.758;2023-02-12T02:02:09;103384.00;;;11.39;69.63
5651;BME280;40241;52.684;9.758;2023-02-12T02:04:40;103387.09;;;11.41;69.65
5651;BME280;40241;52.684;9.758;2023-02-12T02:07:07;103393.81;;;11.40;69.57
5651;BME280;40241;52.684;9.758;2023-02-12T02:09:35;103384.84;;;11.36;69.53
5651;BME280;40241;52.684;9.758;2023-02-12T02:12:02;103387.28;;;11.34;69.49
5651;BME280;40241;52.684;9.758;2023-02-12T02:14:47;103383.75;;;11.33;69.66
5651;BME280;40241;52.684;9.758;2023-02-12T02:32:02;103379.88;;;11.31;69.90
5651;BME280;40241;52.684;9.758;2023-02-12T02:37:10;103383.41;;;11.31;69.55
5651;BME280;40241;52.684;9.758;2023-02-12T02:39:44;103383.00;;;11.33;69.67
5651;BME280;40241;52.684;9.758;2023-02-12T02:44:52;103368.88;;;11.31;69.56
5651;BME280;40241;52.684;9.758;2023-02-12T02:47:54;103372.91;;;11.26;70.00
5651;BME280;40241;52.684;9.758;2023-02-12T02:50:22;103380.84;;;11.24;69.53
5651;BME280;40241;52.684;9.758;2023-02-12T02:52:56;103382.13;;;11.20;69.85
5651;BME280;40241;52.684;9.758;2023-02-12T02:55:26;103387.28;;;11.18;69.78
5651;BME280;40241;52.684;9.758;2023-02-12T02:57:56;103384.88;;;11.20;70.00
5651;BME280;40241;52.684;9.758;2023-02-12T03:00:34;103391.59;;;11.19;69.80
5651;BME280;40241;52.684;9.758;2023-02-12T03:03:10;103388.47;;;11.17;70.00
5651;BME280;40241;52.684;9.758;2023-02-12T03:05:41;103394.78;;;11.17;69.92
5651;BME280;40241;52.684;9.758;2023-02-12T03:10:43;103392.03;;;11.17;69.93
5651;BME280;40241;52.684;9.758;2023-02-12T03:13:22;103391.13;;;11.20;69.96
5651;BME280;40241;52.684;9.758;2023-02-12T03:15:58;103397.88;;;11.19;69.79
5651;BME280;40241;52.684;9.758;2023-02-12T03:18:27;103396.31;;;11.18;69.87
5651;BME280;40241;52.684;9.758;2023-02-12T03:21:00;103401.91;;;11.15;70.07
5651;BME280;40241;52.684;9.758;2023-02-12T03:23:51;103405.09;;;11.13;70.16
5651;BME280;40241;52.684;9.758;2023-02-12T03:26:27;103403.53;;;11.12;70.01
5651;BME280;40241;52.684;9.758;2023-02-12T03:28:57;103407.88;;;11.13;70.01
5651;BME280;40241;52.684;9.758;2023-02-12T03:31:29;103412.16;;;11.14;69.87
5651;BME280;40241;52.684;9.758;2023-02-12T03:34:17;103411.75;;;11.16;69.78
5651;BME280;40241;52.684;9.758;2023-02-12T03:36:56;103414.13;;;11.14;70.00
5651;BME280;40241;52.684;9.758;2023-02-12T03:39:30;103415.34;;;11.13;69.86
5651;BME280;40241;52.684;9.758;2023-02-12T03:47:03;103422.00;;;11.15;69.88
5651;BME280;40241;52.684;9.758;2023-02-12T03:49:41;103420.00;;;11.16;69.77
5651;BME280;40241;52.684;9.758;2023-02-12T03:52:11;103431.38;;;11.18;69.80
5651;BME280;40241;52.684;9.758;2023-02-12T03:54:37;103428.19;;;11.19;69.83
5651;BME280;40241;52.684;9.758;2023-02-12T03:57:12;103427.41;;;11.19;69.73
5651;BME280;40241;52.684;9.758;2023-02-12T03:59:38;103422.78;;;11.16;69.65
5651;BME280;40241;52.684;9.758;2023-02-12T04:02:04;103437.75;;;11.15;69.61
5651;BME280;40241;52.684;9.758;2023-02-12T04:04:31;103440.50;;;11.15;69.56
5651;BME280;40241;52.684;9.758;2023-02-12T04:06:57;103433.94;;;11.09;69.79
5651;BME280;40241;52.684;9.758;2023-02-12T04:09:24;103437.47;;;11.09;69.70
5651;BME280;40241;52.684;9.758;2023-02-12T04:17:18;103450.13;;;11.07;69.95
5651;BME280;40241;52.684;9.758;2023-02-12T04:22:43;103448.41;;;11.13;69.91
5651;BME280;40241;52.684;9.758;2023-02-12T04:25:54;103452.38;;;11.12;69.79
5651;BME280;40241;52.684;9.758;2023-02-12T04:28:45;103462.97;;;11.13;69.73
5651;BME280;40241;52.684;9.758;2023-02-12T04:31:25;103464.94;;;11.13;69.61
5651;BME280;40241;52.684;9.758;2023-02-12T04:34:04;103468.13;;;11.11;69.77
5651;BME280;40241;52.684;9.758;2023-02-12T04:36:34;103474.00;;;11.13;69.55
5651;BME280;40241;52.684;9.758;2023-02-12T04:39:17;103468.41;;;11.17;69.51
5651;BME280;40241;52.684;9.758;2023-02-12T04:41:43;103469.19;;;11.17;69.46
5651;BME280;40241;52.684;9.758;2023-02-12T04:44:15;103472.72;;;11.18;69.38
5651;BME280;40241;52.684;9.758;2023-02-12T04:46:40;103472.38;;;11.16;69.42
5651;BME280;40241;52.684;9.758;2023-02-12T04:49:05;103476.66;;;11.17;69.39
5651;BME280;40241;52.684;9.758;2023-02-12T04:51:31;103467.97;;;11.18;69.45
5651;BME280;40241;52.684;9.758;2023-02-12T04:53:56;103468.31;;;11.20;69.40
5651;BME280;40241;52.684;9.758;2023-02-12T04:56:21;103474.19;;;11.22;69.28
5651;BME280;40241;52.684;9.758;2023-02-12T04:58:47;103474.94;;;11.23;69.31
5651;BME280;40241;52.684;9.758;2023-02-12T05:01:12;103474.94;;;11.23;69.40
5651;BME280;40241;52.684;9.758;2023-02-12T05:03:38;103474.19;;;11.22;69.20
5651;BME280;40241;52.684;9.758;2023-02-12T05:06:05;103472.19;;;11.23;69.31
5651;BME280;40241;52.684;9.758;2023-02-12T05:08:31;103470.66;;;11.22;69.40
5651;BME280;40241;52.684;9.758;2023-02-12T05:11:05;103462.38;;;11.22;69.19
5651;BME280;40241;52.684;9.758;2023-02-12T05:13:31;103463.56;;;11.21;69.48
5651;BME280;40241;52.684;9.758;2023-02-12T05:15:56;103473.41;;;11.22;69.42
5651;BME280;40241;52.684;9.758;2023-02-12T05:18:21;103471.44;;;11.22;69.31
5651;BME280;40241;52.684;9.758;2023-02-12T05:20:54;103479.72;;;11.22;69.23
5651;BME280;40241;52.684;9.758;2023-02-12T05:23:20;103469.09;;;11.21;69.40
5651;BME280;40241;52.684;9.758;2023-02-12T05:25:46;103475.72;;;11.23;69.31
5651;BME280;40241;52.684;9.758;2023-02-12T05:28:11;103474.94;;;11.23;69.18
5651;BME280;40241;52.684;9.758;2023-02-12T05:30:36;103469.44;;;11.23;69.14
5651;BME280;40241;52.684;9.758;2023-02-12T05:33:02;103469.44;;;11.23;69.14
5651;BME280;40241;52.684;9.758;2023-02-12T05:35:27;103476.16;;;11.22;69.31
5651;BME280;40241;52.684;9.758;2023-02-12T05:37:52;103472.97;;;11.23;69.20
5651;BME280;40241;52.684;9.758;2023-02-12T05:40:18;103467.91;;;11.22;69.36
5651;BME280;40241;52.684;9.758;2023-02-12T05:42:43;103473.41;;;11.22;69.15
5651;BME280;40241;52.684;9.758;2023-02-12T05:45:09;103469.88;;;11.21;69.22
5651;BME280;40241;52.684;9.758;2023-02-12T05:47:34;103469.44;;;11.23;69.18
5651;BME280;40241;52.684;9.758;2023-02-12T05:49:59;103467.91;;;11.22;69.30
5651;BME280;40241;52.684;9.758;2023-02-12T05:52:25;103470.66;;;11.22;69.27
5651;BME280;40241;52.684;9.758;2023-02-12T05:54:50;103470.66;;;11.22;69.12
5651;BME280;40241;52.684;9.758;2023-02-12T05:57:15;103473.41;;;11.22;69.16
5651;BME280;40241;52.684;9.758;2023-02-12T05:59:41;103477.34;;;11.21;69.13
5651;BME280;40241;52.684;9.758;2023-02-12T06:02:06;103477.78;;;11.19;69.19
5651;BME280;40241;52.684;9.758;2023-02-12T06:04:31;103481.34;;;11.20;69.02
5651;BME280;40241;52.684;9.758;2023-02-12T06:06:59;103481.00;;;11.18;69.18
5651;BME280;40241;52.684;9.758;2023-02-12T06:09:24;103487.69;;;11.17;69.26
5651;BME280;40241;52.684;9.758;2023-02-12T06:11:50;103482.63;;;11.15;69.18
5651;BME280;40241;52.684;9.758;2023-02-12T06:14:18;103480.63;;;11.16;69.18
5651;BME280;40241;52.684;9.758;2023-02-12T06:16:46;103490.44;;;11.17;69.13
5651;BME280;40241;52.684;9.758;2023-02-12T06:19:11;103495.59;;;11.15;69.16
5651;BME280;40241;52.684;9.758;2023-02-12T06:21:37;103497.19;;;11.16;69.20
5651;BME280;40241;52.684;9.758;2023-02-12T06:24:02;103501.13;;;11.15;69.18
5651;BME280;40241;52.684;9.758;2023-02-12T06:26:29;103497.19;;;11.16;69.28
5651;BME280;40241;52.684;9.758;2023-02-12T06:28:54;103494.47;;;11.12;69.26
5651;BME280;40241;52.684;9.758;2023-02-12T06:31:27;103499.56;;;11.14;69.14
5651;BME280;40241;52.684;9.758;2023-02-12T06:33:56;103498.00;;;11.13;69.15
5651;BME280;40241;52.684;9.758;2023-02-12T06:36:22;103511.78;;;11.13;69.15
5651;BME280;40241;52.684;9.758;2023-02-12T06:38:48;103515.34;;;11.13;69.21
5651;BME280;40241;52.684;9.758;2023-02-12T06:41:14;103519.28;;;11.12;69.21
5651;BME280;40241;52.684;9.758;2023-02-12T06:43:39;103517.31;;;11.13;69.18
5651;BME280;40241;52.684;9.758;2023-02-12T06:46:06;103518.50;;;11.12;69.31
5651;BME280;40241;52.684;9.758;2023-02-12T06:48:32;103519.28;;;11.12;69.19
5651;BME280;40241;52.684;9.758;2023-02-12T06:51:09;103524.34;;;11.14;69.10
5651;BME280;40241;52.684;9.758;2023-02-12T06:53:35;103553.13;;;11.13;69.20
5651;BME280;40241;52.684;9.758;2023-02-12T06:56:02;103525.56;;;11.13;69.28
5651;BME280;40241;52.684;9.758;2023-02-12T06:58:28;103530.31;;;11.12;69.16
5651;BME280;40241;52.684;9.758;2023-02-12T07:00:53;103535.81;;;11.12;69.14
5651;BME280;40241;52.684;9.758;2023-02-12T07:03:18;103543.28;;;11.12;69.28
5651;BME280;40241;52.684;9.758;2023-02-12T07:05:44;103544.06;;;11.12;69.09
5651;BME280;40241;52.684;9.758;2023-02-12T07:08:10;103538.56;;;11.12;69.17
5651;BME280;40241;52.684;9.758;2023-02-12T07:10:35;103546.84;;;11.12;69.25
5651;BME280;40241;52.684;9.758;2023-02-12T07:13:01;103548.81;;;11.12;69.09
5651;BME280;40241;52.684;9.758;2023-02-12T07:15:26;103544.84;;;11.13;69.35
5651;BME280;40241;52.684;9.758;2023-02-12T07:17:51;103546.06;;;11.12;69.14
5651;BME280;40241;52.684;9.758;2023-02-12T07:20:17;103552.34;;;11.12;69.26
5651;BME280;40241;52.684;9.758;2023-02-12T07:22:42;103546.47;;;11.10;69.18
5651;BME280;40241;52.684;9.758;2023-02-12T07:25:08;103552.09;;;11.07;69.20
5651;BME280;40241;52.684;9.758;2023-02-12T07:27:36;103548.53;;;11.06;69.28
5651;BME280;40241;52.684;9.758;2023-02-12T07:30:02;103559.13;;;11.08;69.47
5651;BME280;40241;52.684;9.758;2023-02-12T07:32:27;103546.91;;;11.09;69.34
5651;BME280;40241;52.684;9.758;2023-02-12T07:34:53;103551.22;;;11.10;69.36
5651;BME280;40241;52.684;9.758;2023-02-12T07:37:18;103553.22;;;11.09;69.44
5651;BME280;40241;52.684;9.758;2023-02-12T07:39:47;103546.06;;;11.12;69.57
5651;BME280;40241;52.684;9.758;2023-02-12T07:42:12;103555.88;;;11.13;69.37
5651;BME280;40241;52.684;9.758;2023-02-12T07:44:39;103550.72;;;11.15;69.34
5651;BME280;40241;52.684;9.758;2023-02-12T07:47:04;103549.88;;;11.18;69.38
5651;BME280;40241;52.684;9.758;2023-02-12T07:49:30;103553.75;;;11.20;69.35
5651;BME280;40241;52.684;9.758;2023-02-12T07:51:55;103556.94;;;11.19;69.40
5651;BME280;40241;52.684;9.758;2023-02-12T07:54:21;103558.50;;;11.20;69.38
5651;BME280;40241;52.684;9.758;2023-02-12T07:56:46;103557.28;;;11.21;69.31
5651;BME280;40241;52.684;9.758;2023-02-12T07:59:14;103560.03;;;11.21;69.16
5651;BME280;40241;52.684;9.758;2023-02-12T08:01:44;103551.75;;;11.21;69.47
5651;BME280;40241;52.684;9.758;2023-02-12T08:04:12;103551.75;;;11.21;69.48
5651;BME280;40241;52.684;9.758;2023-02-12T08:06:41;103549.34;;;11.23;69.50
5651;BME280;40241;52.684;9.758;2023-02-12T08:09:09;103556.34;;;11.27;69.45
5651;BME280;40241;52.684;9.758;2023-02-12T08:11:35;103562.22;;;11.29;69.52
5651;BME280;40241;52.684;9.758;2023-02-12T08:14:02;103565.41;;;11.28;69.26
5651;BME280;40241;52.684;9.758;2023-02-12T08:16:28;103574.88;;;11.27;69.53
5651;BME280;40241;52.684;9.758;2023-02-12T08:18:54;103578.84;;;11.26;69.45
5651;BME280;40241;52.684;9.758;2023-02-12T08:21:25;103585.13;;;11.26;69.48
5651;BME280;40241;52.684;9.758;2023-02-12T08:23:52;103583.13;;;11.27;69.43
5651;BME280;40241;52.684;9.758;2023-02-12T08:26:28;103586.25;;;11.29;69.47
5651;BME280;40241;52.684;9.758;2023-02-12T08:28:56;103577.13;;;11.32;69.64
5651;BME280;40241;52.684;9.758;2023-02-12T08:31:25;103583.44;;;11.32;69.35
5651;BME280;40241;52.684;9.758;2023-02-12T08:33:52;103583.00;;;11.34;69.59
5651;BME280;40241;52.684;9.758;2023-02-12T08:36:20;103576.28;;;11.35;69.42
5651;BME280;40241;52.684;9.758;2023-02-12T08:38:46;103590.41;;;11.37;69.54
5651;BME280;40241;52.684;9.758;2023-02-12T08:41:14;103585.25;;;11.39;69.27
5651;BME280;40241;52.684;9.758;2023-02-12T08:43:41;103577.41;;;11.38;69.55
5651;BME280;40241;52.684;9.758;2023-02-12T08:46:13;103595.44;;;11.42;69.45
5651;BME280;40241;52.684;9.758;2023-02-12T08:48:39;103592.69;;;11.42;69.28
5651;BME280;40241;52.684;9.758;2023-02-12T08:51:17;103603.72;;;11.42;69.40
5651;BME280;40241;52.684;9.758;2023-02-12T08:53:46;103610.41;;;11.41;69.39
5651;BME280;40241;52.684;9.758;2023-02-12T08:56:13;103604.91;;;11.41;69.41
5651;BME280;40241;52.684;9.758;2023-02-12T08:58:39;103607.66;;;11.41;69.53
5651;BME280;40241;52.684;9.758;2023-02-12T09:01:10;103605.69;;;11.42;69.33
5651;BME280;40241;52.684;9.758;2023-02-12T09:03:35;103609.97;;;11.43;69.36
5651;BME280;40241;52.684;9.758;2023-02-12T09:06:02;103614.66;;;11.46;69.53
5651;BME280;40241;52.684;9.758;2023-02-12T09:08:27;103620.16;;;11.46;69.44
5651;BME280;40241;52.684;9.758;2023-02-12T09:10:53;103620.09;;;11.49;69.60
5651;BME280;40241;52.684;9.758;2023-02-12T09:13:18;103620.09;;;11.49;69.49
5651;BME280;40241;52.684;9.758;2023-02-12T09:15:44;103626.72;;;11.52;69.54
5651;BME280;40241;52.684;9.758;2023-02-12T09:18:11;103632.59;;;11.54;69.33
5651;BME280;40241;52.684;9.758;2023-02-12T09:20:42;103626.28;;;11.53;69.32
5651;BME280;40241;52.684;9.758;2023-02-12T09:23:10;103636.47;;;11.56;69.60
5651;BME280;40241;52.684;9.758;2023-02-12T09:25:41;103631.75;;;11.57;69.47
5651;BME280;40241;52.684;9.758;2023-02-12T09:28:07;103630.91;;;11.60;69.61
5651;BME280;40241;52.684;9.758;2023-02-12T09:30:33;103631.66;;;11.60;69.44
5651;BME280;40241;52.684;9.758;2023-02-12T09:32:58;103637.88;;;11.64;69.45
5651;BME280;40241;52.684;9.758;2023-02-12T09:35:24;103634.66;;;11.69;69.58
5651;BME280;40241;52.684;9.758;2023-02-12T09:37:51;103636.03;;;11.77;69.58
5651;BME280;40241;52.684;9.758;2023-02-12T09:40:21;103640.63;;;11.84;69.34
5651;BME280;40241;52.684;9.758;2023-02-12T09:45:59;103644.00;;;11.91;69.38
5651;BME280;40241;52.684;9.758;2023-02-12T09:51:11;103658.50;;;11.95;69.55
5651;BME280;40241;52.684;9.758;2023-02-12T09:53:40;103649.28;;;12.02;69.27
5651;BME280;40241;52.684;9.758;2023-02-12T09:56:17;103644.91;;;12.04;69.26
5651;BME280;40241;52.684;9.758;2023-02-12T09:58:50;103648.00;;;12.07;69.17
5651;BME280;40241;52.684;9.758;2023-02-12T10:01:18;103646.38;;;12.09;69.28
5651;BME280;40241;52.684;9.758;2023-02-12T10:03:47;103657.75;;;12.11;69.23
5651;BME280;40241;52.684;9.758;2023-02-12T10:06:23;103664.47;;;12.10;69.17
5651;BME280;40241;52.684;9.758;2023-02-12T10:20:14;103659.81;;;12.07;69.03
5651;BME280;40241;52.684;9.758;2023-02-12T10:27:53;103653.06;;;12.08;68.88
5651;BME280;40241;52.684;9.758;2023-02-12T10:30:24;103664.56;;;12.07;68.99
5651;BME280;40241;52.684;9.758;2023-02-12T10:33:00;103660.94;;;12.10;69.25
5651;BME280;40241;52.684;9.758;2023-02-12T10:35:27;103654.22;;;12.11;69.03
5651;BME280;40241;52.684;9.758;2023-02-12T10:38:00;103656.13;;;12.14;69.04
5651;BME280;40241;52.684;9.758;2023-02-12T10:40:30;103665.59;;;12.13;69.16
5651;BME280;40241;52.684;9.758;2023-02-12T10:42:59;103669.13;;;12.13;69.06
5651;BME280;40241;52.684;9.758;2023-02-12T10:48:02;103664.84;;;12.12;69.05
5651;BME280;40241;52.684;9.758;2023-02-12T10:50:51;103661.28;;;12.12;69.16
5651;BME280;40241;52.684;9.758;2023-02-12T10:53:28;103664.06;;;12.12;69.23
5651;BME280;40241;52.684;9.758;2023-02-12T10:58:32;103658.44;;;12.15;69.14
5651;BME280;40241;52.684;9.758;2023-02-12T11:00:59;103654.38;;;12.20;69.17
5651;BME280;40241;52.684;9.758;2023-02-12T11:03:30;103649.56;;;12.24;69.18
5651;BME280;40241;52.684;9.758;2023-02-12T11:06:11;103650.59;;;12.30;69.01
5651;BME280;40241;52.684;9.758;2023-02-12T11:08:37;103651.31;;;12.34;69.06
5651;BME280;40241;52.684;9.758;2023-02-12T11:11:05;103655.59;;;12.35;68.88
5651;BME280;40241;52.684;9.758;2023-02-12T11:13:31;103651.66;;;12.36;68.93
5651;BME280;40241;52.684;9.758;2023-02-12T11:15:57;103641.78;;;12.35;68.80
5651;BME280;40241;52.684;9.758;2023-02-12T11:18:24;103644.91;;;12.37;68.75
5651;BME280;40241;52.684;9.758;2023-02-12T11:21:00;103646.03;;;12.39;69.06
5651;BME280;40241;52.684;9.758;2023-02-12T11:23:37;103643.16;;;12.43;68.89
5651;BME280;40241;52.684;9.758;2023-02-12T11:31:32;103632.50;;;12.45;68.87
5651;BME280;40241;52.684;9.758;2023-02-12T11:34:15;103629.72;;;12.45;68.91
5651;BME280;40241;52.684;9.758;2023-02-12T11:36:45;103626.88;;;12.48;68.95
5651;BME280;40241;52.684;9.758;2023-02-12T11:39:18;103622.03;;;12.52;68.91
5651;BME280;40241;52.684;9.758;2023-02-12T11:41:50;103630.56;;;12.58;68.91
5651;BME280;40241;52.684;9.758;2023-02-12T11:44:23;103626.50;;;12.62;69.13
5651;BME280;40241;52.684;9.758;2023-02-12T11:46:52;103620.53;;;12.64;68.89
5651;BME280;40241;52.684;9.758;2023-02-12T11:49:24;103622.00;;;12.68;68.97
5651;BME280;40241;52.684;9.758;2023-02-12T11:51:51;103622.41;;;12.67;68.86
5651;BME280;40241;52.684;9.758;2023-02-12T11:54:21;103613.38;;;12.66;68.70
5651;BME280;40241;52.684;9.758;2023-02-12T11:56:48;103619.75;;;12.63;68.74
5651;BME280;40241;52.684;9.758;2023-02-12T11:59:25;103625.28;;;12.63;68.84
5651;BME280;40241;52.684;9.758;2023-02-12T12:01:54;103618.13;;;12.66;68.90
5651;BME280;40241;52.684;9.758;2023-02-12T12:04:22;103613.72;;;12.68;68.84
5651;BME280;40241;52.684;9.758;2023-02-12T12:07:04;103613.28;;;12.70;68.84
5651;BME280;40241;52.684;9.758;2023-02-12T12:09:48;103615.59;;;12.71;68.71
5651;BME280;40241;52.684;9.758;2023-02-12T12:12:22;103606.13;;;12.72;68.73
5651;BME280;40241;52.684;9.758;2023-02-12T12:15:02;103604.47;;;12.75;68.69
5651;BME280;40241;52.684;9.758;2023-02-12T12:24:13;103599.28;;;12.77;68.81
5651;BME280;40241;52.684;9.758;2023-02-12T12:26:44;103595.97;;;12.82;68.86
5651;BME280;40241;52.684;9.758;2023-02-12T12:29:39;103597.53;;;12.83;68.93
5651;BME280;40241;52.684;9.758;2023-02-12T12:32:11;103597.88;;;12.85;68.72
5651;BME280;40241;52.684;9.758;2023-02-12T12:34:38;103597.09;;;12.85;68.86
5651;BME280;40241;52.684;9.758;2023-02-12T12:37:11;103592.34;;;12.85;68.81
5651;BME280;40241;52.684;9.758;2023-02-12T12:40:02;103589.25;;;12.83;68.83
5651;BME280;40241;52.684;9.758;2023-02-12T12:48:25;103583.72;;;12.83;68.86
5651;BME280;40241;52.684;9.758;2023-02-12T12:59:26;103572.66;;;12.83;68.83
5651;BME280;40241;52.684;9.758;2023-02-12T13:10:39;103564.91;;;12.78;68.73
5651;BME280;40241;52.684;9.758;2023-02-12T13:13:45;103565.13;;;12.71;68.42
5651;BME280;40241;52.684;9.758;2023-02-12T13:16:17;103561.56;;;12.70;68.75
5651;BME280;40241;52.684;9.758;2023-02-12T13:21:51;103566.22;;;12.73;68.87
5651;BME280;40241;52.684;9.758;2023-02-12T13:24:47;103565.88;;;12.71;68.75
5651;BME280;40241;52.684;9.758;2023-02-12T13:27:40;103557.00;;;12.64;68.63
5651;BME280;40241;52.684;9.758;2023-02-12T13:30:18;103563.06;;;12.59;68.58
5651;BME280;40241;52.684;9.758;2023-02-12T13:32:49;103556.97;;;12.51;68.92
5651;BME280;40241;52.684;9.758;2023-02-12T13:35:21;103554.88;;;12.55;68.78
5651;BME280;40241;52.684;9.758;2023-02-12T13:37:51;103554.44;;;12.57;68.84
5651;BME280;40241;52.684;9.758;2023-02-12T13:40:24;103546.16;;;12.57;68.92
5651;BME280;40241;52.684;9.758;2023-02-12T13:45:45;103545.19;;;12.63;68.88
5651;BME280;40241;52.684;9.758;2023-02-12T13:48:48;103545.97;;;12.64;68.70
5651;BME280;40241;52.684;9.758;2023-02-12T13:51:23;103540.97;;;12.59;68.85
5651;BME280;40241;52.684;9.758;2023-02-12T13:56:42;103539.31;;;12.61;68.79
5651;BME280;40241;52.684;9.758;2023-02-12T14:04:43;103544.75;;;12.65;68.76
5651;BME280;40241;52.684;9.758;2023-02-12T14:07:11;103554.94;;;12.68;68.67
5651;BME280;40241;52.684;9.758;2023-02-12T14:10:04;103544.22;;;12.70;68.56
5651;BME280;40241;52.684;9.758;2023-02-12T14:12:34;103545.78;;;12.71;68.72
5651;BME280;40241;52.684;9.758;2023-02-12T14:15:34;103538.91;;;12.75;68.46
5651;BME280;40241;52.684;9.758;2023-02-12T14:20:30;103542.91;;;12.74;68.34
5651;BME280;40241;52.684;9.758;2023-02-12T14:25:46;103552.50;;;12.70;68.57
5651;BME280;40241;52.684;9.758;2023-02-12T14:28:21;103548.19;;;12.69;68.41
5651;BME280;40241;52.684;9.758;2023-02-12T14:33:47;103551.72;;;12.69;68.50
5651;BME280;40241;52.684;9.758;2023-02-12T14:36:17;103554.94;;;12.68;68.52
5651;BME280;40241;52.684;9.758;2023-02-12T14:46:48;103553.28;;;12.70;68.40
5651;BME280;40241;52.684;9.758;2023-02-12T14:49:26;103563.88;;;12.72;68.35
5651;BME280;40241;52.684;9.758;2023-02-12T14:52:18;103557.50;;;12.75;68.53
5651;BME280;40241;52.684;9.758;2023-02-12T14:55:17;103560.94;;;12.79;68.44
5651;BME280;40241;52.684;9.758;2023-02-12T14:57:44;103560.81;;;12.82;68.60
5651;BME280;40241;52.684;9.758;2023-02-12T15:02:45;103555.63;;;12.85;68.40
5651;BME280;40241;52.684;9.758;2023-02-12T15:05:21;103554.53;;;12.82;68.36
5651;BME280;40241;52.684;9.758;2023-02-12T15:07:51;103555.41;;;12.79;68.38
5651;BME280;40241;52.684;9.758;2023-02-12T15:10:22;103549.22;;;12.75;68.34
5651;BME280;40241;52.684;9.758;2023-02-12T15:15:34;103557.16;;;12.73;68.47
5651;BME280;40241;52.684;9.758;2023-02-12T15:18:23;103554.06;;;12.71;68.58
5651;BME280;40241;52.684;9.758;2023-02-12T15:21:15;103555.59;;;12.72;68.63
5651;BME280;40241;52.684;9.758;2023-02-12T15:23:46;103559.59;;;12.71;68.50
5651;BME280;40241;52.684;9.758;2023-02-12T15:26:22;103554.41;;;12.73;68.69
5651;BME280;40241;52.684;9.758;2023-02-12T15:28:50;103546.88;;;12.73;68.55
5651;BME280;40241;52.684;9.758;2023-02-12T15:31:19;103544.44;;;12.75;68.54